Time,TemperatureF,DewpointF,PressureIn,WindDirection,WindDirectionDegrees,WindSpeedMPH,WindSpeedGustMPH,Humidity,HourlyPrecipIn,Conditions,Clouds,dailyrainin,SoftwareType,DateUTC
2013-08-12 00:02:00,-999.0,-99.9,30.16,NNE,17,5.0,7.0,-999,-99.99,,,-99.99,,2013-08-12 04:02:00,
2013-08-12 00:22:00,-999.0,-99.9,30.16,North,5,5.0,6.0,-999,-99.99,,,-99.99,,2013-08-12 04:22:00,
2013-08-12 00:33:00,85.0,-99.9,30.16,North,-999,-999.0,-999.0,-999,-99.99,,,-99.99,,2013-08-12 04:33:00,
2013-08-12 00:43:00,85.0,-99.9,30.16,North,-999,-999.0,-999.0,-999,-99.99,,,-99.99,,2013-08-12 04:43:00,
2013-08-12 00:52:00,-999.0,-99.9,30.16,NNE,32,5.0,8.0,-999,-99.99,,,-99.99,,2013-08-12 04:52:00,
2013-08-12 01:22:00,-999.0,-99.9,30.16,ESE,115,6.0,10.0,-999,-99.99,,,-99.99,,2013-08-12 05:22:00,
2013-08-12 01:32:00,-999.0,-99.9,30.16,ESE,117,6.0,9.0,-999,-99.99,,,-99.99,,2013-08-12 05:32:00,
2013-08-12 01:43:00,-999.0,-99.9,30.16,ESE,119,5.0,9.0,-999,-99.99,,,-99.99,,2013-08-12 05:43:00,
2013-08-12 01:52:00,84.0,-99.9,30.16,North,-999,-999.0,-999.0,-999,-99.99,,,-99.99,,2013-08-12 05:52:00,
2013-08-12 02:32:00,84.0,-99.9,30.15,North,-999,-999.0,-999.0,-999,-99.99,,,-99.99,,2013-08-12 06:32:00,
2013-08-12 02:42:00,-999.0,-99.9,30.15,SE,139,9.0,12.0,-999,-99.99,,,-99.99,,2013-08-12 06:42:00,
2013-08-12 02:52:00,83.0,-99.9,30.14,North,-999,-999.0,-999.0,-999,-99.99,,,-99.99,,2013-08-12 06:52:00,
2013-08-12 03:01:00,-999.0,-99.9,30.14,SE,137,8.0,11.0,-999,-99.99,,,-99.99,,2013-08-12 07:01:00,
2013-08-12 03:43:00,-999.0,-99.9,30.12,SE,127,7.0,10.0,-999,-99.99,,,-99.99,,2013-08-12 07:43:00,
2013-08-12 03:53:00,82.0,-99.9,30.12,North,-999,-999.0,-999.0,-999,-99.99,,,-99.99,,2013-08-12 07:53:00,
2013-08-12 04:02:00,-999.0,-99.9,30.12,SE,130,6.0,9.0,-999,-99.99,,,-99.99,,2013-08-12 08:02:00,
2013-08-12 04:22:00,-999.0,-99.9,30.12,SE,138,6.0,9.0,-999,-99.99,,,-99.99,,2013-08-12 08:22:00,
2013-08-12 04:33:00,82.0,-99.9,30.11,North,-999,-999.0,-999.0,-999,-99.99,,,-99.99,,2013-08-12 08:33:00,
2013-08-12 04:43:00,82.0,-99.9,30.11,North,-999,-999.0,-999.0,-999,-99.99,,,-99.99,,2013-08-12 08:43:00,
2013-08-12 04:53:00,-999.0,-99.9,30.12,SSE,150,7.0,9.0,-999,-99.99,,,-99.99,,2013-08-12 08:53:00,
2013-08-12 05:32:00,81.0,-99.9,30.11,North,-999,-999.0,-999.0,-999,-99.99,,,-99.99,,2013-08-12 09:32:00,
2013-08-12 05:43:00,-999.0,-99.9,30.11,SE,141,6.0,9.0,-999,-99.99,,,-99.99,,2013-08-12 09:43:00,
2013-08-12 05:53:00,81.0,-99.9,30.11,North,-999,-999.0,-999.0,-999,-99.99,,,-99.99,,2013-08-12 09:53:00,
2013-08-12 06:02:00,81.0,-99.9,30.11,North,-999,-999.0,-999.0,-999,-99.99,,,-99.99,,2013-08-12 10:02:00,
2013-08-12 06:12:00,-999.0,-99.9,30.11,SE,146,5.0,8.0,-999,-99.99,,,-99.99,,2013-08-12 10:12:00,
2013-08-12 06:32:00,-999.0,-99.9,30.12,SE,131,4.0,5.0,-999,-99.99,,,-99.99,,2013-08-12 10:32:00,
2013-08-12 06:43:00,81.0,-99.9,30.12,North,-999,-999.0,-999.0,-999,-99.99,,,-99.99,,2013-08-12 10:43:00,
2013-08-12 06:52:00,81.0,-99.9,30.13,North,-999,-999.0,-999.0,-999,-99.99,,,-99.99,,2013-08-12 10:52:00,
2013-08-12 07:02:00,-999.0,-99.9,30.13,SE,131,3.0,5.0,-999,-99.99,,,-99.99,,2013-08-12 11:02:00,
2013-08-12 07:32:00,-999.0,-99.9,30.14,ESE,102,3.0,5.0,-999,-99.99,,,-99.99,,2013-08-12 11:32:00,
2013-08-12 07:43:00,80.0,-99.9,30.14,North,-999,-999.0,-999.0,-999,-99.99,,,-99.99,,2013-08-12 11:43:00,
2013-08-12 07:53:00,81.0,-99.9,30.14,North,-999,-999.0,-999.0,-999,-99.99,,,-99.99,,2013-08-12 11:53:00,
2013-08-12 08:02:00,-999.0,-99.9,30.14,East,85,3.0,6.0,-999,-99.99,,,-99.99,,2013-08-12 12:02:00,
2013-08-12 08:22:00,-999.0,-99.9,30.14,SE,133,5.0,6.0,-999,-99.99,,,-99.99,,2013-08-12 12:22:00,
2013-08-12 08:32:00,81.0,-99.9,30.14,North,-999,-999.0,-999.0,-999,-99.99,,,-99.99,,2013-08-12 12:32:00,
2013-08-12 08:43:00,-999.0,-99.9,30.14,SE,131,5.0,8.0,-999,-99.99,,,-99.99,,2013-08-12 12:43:00,
2013-08-12 08:52:00,-999.0,-99.9,30.14,SE,142,6.0,8.0,-999,-99.99,,,-99.99,,2013-08-12 12:52:00,
2013-08-12 09:12:00,-999.0,-99.9,30.14,SE,135,6.0,7.0,-999,-99.99,,,-99.99,,2013-08-12 13:12:00,
2013-08-12 09:33:00,-999.0,-99.9,30.15,SE,139,5.0,7.0,-999,-99.99,,,-99.99,,2013-08-12 13:33:00,
2013-08-12 09:43:00,81.0,-99.9,30.15,North,-999,-999.0,-999.0,-999,-99.99,,,-99.99,,2013-08-12 13:43:00,
2013-08-12 09:53:00,-999.0,-99.9,30.15,SE,145,6.0,8.0,-999,-99.99,,,-99.99,,2013-08-12 13:53:00,
2013-08-12 10:11:00,-999.0,-99.9,30.15,SE,133,5.0,7.0,-999,-99.99,,,-99.99,,2013-08-12 14:11:00,
2013-08-12 10:22:00,-999.0,-99.9,30.15,SE,133,6.0,8.0,-999,-99.99,,,-99.99,,2013-08-12 14:22:00,
2013-08-12 10:32:00,-999.0,-99.9,30.15,SE,138,6.0,8.0,-999,-99.99,,,-99.99,,2013-08-12 14:32:00,
2013-08-12 11:02:00,83.0,-99.9,30.15,North,-999,-999.0,-999.0,-999,-99.99,,,-99.99,,2013-08-12 15:02:00,
2013-08-12 11:12:00,-999.0,-99.9,30.14,SSE,152,4.0,4.0,-999,-99.99,,,-99.99,,2013-08-12 15:12:00,
2013-08-12 12:02:00,84.0,-99.9,30.14,North,-999,-999.0,-999.0,-999,-99.99,,,-99.99,,2013-08-12 16:02:00,
2013-08-12 12:11:00,-999.0,-99.9,30.14,East,79,4.0,6.0,-999,-99.99,,,-99.99,,2013-08-12 16:11:00,
2013-08-12 12:53:00,-999.0,-99.9,30.13,ESE,112,2.0,5.0,-999,-99.99,,,-99.99,,2013-08-12 16:53:00,
2013-08-12 13:02:00,-999.0,-99.9,30.13,ESE,112,2.0,5.0,-999,-99.99,,,-99.99,,2013-08-12 17:02:00,
2013-08-12 13:11:00,85.0,-99.9,30.13,North,-999,-999.0,-999.0,-999,-99.99,,,-99.99,,2013-08-12 17:11:00,
2013-08-12 13:32:00,-999.0,-99.9,30.13,ENE,78,4.0,5.0,-999,-99.99,,,-99.99,,2013-08-12 17:32:00,
2013-08-12 13:43:00,86.0,-99.9,30.12,North,-999,-999.0,-999.0,-999,-99.99,,,-99.99,,2013-08-12 17:43:00,
2013-08-12 13:52:00,-999.0,-99.9,30.12,SE,130,3.0,5.0,-999,-99.99,,,-99.99,,2013-08-12 17:52:00,
2013-08-12 14:02:00,-999.0,-99.9,30.12,East,91,3.0,6.0,-999,-99.99,,,-99.99,,2013-08-12 18:02:00,
2013-08-12 14:24:00,-999.0,-99.9,30.11,East,85,3.0,5.0,-999,-99.99,,,-99.99,,2013-08-12 18:24:00,
2013-08-12 14:32:00,-999.0,-99.9,30.11,East,89,3.0,5.0,-999,-99.99,,,-99.99,,2013-08-12 18:32:00,
2013-08-12 14:43:00,-999.0,-99.9,30.11,East,89,3.0,5.0,-999,-99.99,,,-99.99,,2013-08-12 18:43:00,
2013-08-12 14:52:00,88.0,-99.9,30.11,North,-999,-999.0,-999.0,-999,-99.99,,,-99.99,,2013-08-12 18:52:00,
2013-08-12 15:02:00,-999.0,-99.9,30.10,SE,124,3.0,4.0,-999,-99.99,,,-99.99,,2013-08-12 19:02:00,
2013-08-12 15:11:00,-999.0,-99.9,30.10,East,80,2.0,4.0,-999,-99.99,,,-99.99,,2013-08-12 19:11:00,
2013-08-12 15:33:00,-999.0,-99.9,30.09,East,94,3.0,5.0,-999,-99.99,,,-99.99,,2013-08-12 19:33:00,
2013-08-12 15:43:00,-999.0,-99.9,30.08,East,85,3.0,5.0,-999,-99.99,,,-99.99,,2013-08-12 19:43:00,
2013-08-12 16:02:00,90.0,-99.9,30.08,North,-999,-999.0,-999.0,-999,-99.99,,,-99.99,,2013-08-12 20:02:00,
2013-08-12 16:11:00,91.0,-99.9,30.07,North,-999,-999.0,-999.0,-999,-99.99,,,-99.99,,2013-08-12 20:11:00,
2013-08-12 16:32:00,-999.0,-99.9,30.07,SE,141,3.0,5.0,-999,-99.99,,,-99.99,,2013-08-12 20:32:00,
2013-08-12 16:42:00,-999.0,-99.9,30.07,South,191,1.0,4.0,-999,-99.99,,,-99.99,,2013-08-12 20:42:00,
2013-08-12 17:12:00,92.0,-99.9,30.06,North,-999,-999.0,-999.0,-999,-99.99,,,-99.99,,2013-08-12 21:12:00,
2013-08-12 17:22:00,-999.0,-99.9,30.06,NNE,28,2.0,4.0,-999,-99.99,,,-99.99,,2013-08-12 21:22:00,
2013-08-12 17:43:00,92.0,-99.9,30.05,North,-999,-999.0,-999.0,-999,-99.99,,,-99.99,,2013-08-12 21:43:00,
2013-08-12 18:02:00,91.0,-99.9,30.05,North,-999,-999.0,-999.0,-999,-99.99,,,-99.99,,2013-08-12 22:02:00,
2013-08-12 18:32:00,-999.0,-99.9,30.04,NW,307,8.0,10.0,-999,-99.99,,,-99.99,,2013-08-12 22:32:00,
2013-08-12 19:34:00,-999.0,-99.9,30.04,NW,316,8.0,10.0,-999,-99.99,,,-99.99,,2013-08-12 23:34:00,
2013-08-12 19:54:00,-999.0,-99.9,30.04,NW,310,8.0,11.0,-999,-99.99,,,-99.99,,2013-08-12 23:54:00,
2013-08-12 20:03:00,-999.0,-99.9,30.04,NW,316,5.0,8.0,-999,-99.99,,,-99.99,,2013-08-13 00:03:00,
2013-08-12 20:35:00,-999.0,-99.9,30.05,NW,326,5.0,9.0,-999,-99.99,,,-99.99,,2013-08-13 00:35:00,
2013-08-12 20:54:00,-999.0,-99.9,30.06,NNW,347,6.0,8.0,-999,-99.99,,,-99.99,,2013-08-13 00:54:00,
2013-08-12 21:55:00,-999.0,-99.9,30.07,NNW,333,6.0,9.0,-999,-99.99,,,-99.99,,2013-08-13 01:55:00,
2013-08-12 22:11:00,-999.0,-99.9,30.07,NNW,343,6.0,8.0,-999,-99.99,,,-99.99,,2013-08-13 02:11:00,
2013-08-12 22:52:00,-999.0,-99.9,30.09,North,356,5.0,8.0,-999,-99.99,,,-99.99,,2013-08-13 02:52:00,
2013-08-12 23:11:00,-999.0,-99.9,30.10,North,358,5.0,7.0,-999,-99.99,,,-99.99,,2013-08-13 03:11:00,
2013-08-12 23:22:00,-999.0,-99.9,30.10,North,359,5.0,6.0,-999,-99.99,,,-99.99,,2013-08-13 03:22:00,
2013-08-12 23:43:00,-999.0,-99.9,30.09,North,7,5.0,8.0,-999,-99.99,,,-99.99,,2013-08-13 03:43:00,
2013-08-12 23:54:00,-999.0,-99.9,30.09,NNW,344,5.0,7.0,-999,-99.99,,,-99.99,,2013-08-13 03:54:00,